createdAt,value
2019-06-07T00:00:57.962Z,13.50
2019-06-07T00:03:02.053Z,13.50
2019-06-07T00:05:07.667Z,13.50
2019-06-07T00:07:12.573Z,13.50
2019-06-07T00:09:21.983Z,13.50
2019-06-07T00:11:23.202Z,13.80
2019-06-07T00:13:27.423Z,13.40
2019-06-07T00:15:31.563Z,13.10
2019-06-07T00:17:35.458Z,13.10
2019-06-07T00:19:39.642Z,13.20
2019-06-07T00:23:49.362Z,13.20
2019-06-07T00:25:53.442Z,13.20
2019-06-07T00:27:57.562Z,13.20
2019-06-07T00:30:29.689Z,13.10
2019-06-07T00:32:07.332Z,13.10
2019-06-07T00:34:12.014Z,13.10
2019-06-07T00:36:18.191Z,13.20
2019-06-07T00:38:22.912Z,13.20
2019-06-07T00:40:31.871Z,13.10
2019-06-07T00:42:32.572Z,13.10
2019-06-07T00:44:36.632Z,13.10
2019-06-07T00:46:40.602Z,13.10
2019-06-07T00:48:44.500Z,13.10
2019-06-07T00:50:48.542Z,13.10
2019-06-07T00:53:14.636Z,13.10
2019-06-07T00:54:58.437Z,13.00
2019-06-07T00:57:02.512Z,13.10
2019-06-07T00:59:11.265Z,13.00
2019-06-07T01:01:13.077Z,13.00
2019-06-07T01:03:21.994Z,13.00
2019-06-07T01:05:31.059Z,12.90
2019-06-07T01:07:29.140Z,12.80
2019-06-07T01:09:33.456Z,12.90
2019-06-07T01:11:37.483Z,12.80
2019-06-07T01:13:41.552Z,12.90
2019-06-07T01:15:45.602Z,12.90
2019-06-07T01:18:33.190Z,12.80
2019-06-07T01:19:55.332Z,12.90
2019-06-07T01:21:59.411Z,12.90
2019-06-07T01:24:12.065Z,13.00
2019-06-07T01:26:09.132Z,12.90
2019-06-07T01:28:13.191Z,12.90
2019-06-07T01:30:18.848Z,12.80
2019-06-07T01:32:26.586Z,12.80
2019-06-07T01:34:29.313Z,12.90
2019-06-07T01:36:33.622Z,13.00
2019-06-07T01:38:37.439Z,12.90
2019-06-07T01:40:41.532Z,12.90
2019-06-07T01:42:45.630Z,12.80
2019-06-07T01:44:49.682Z,12.70
2019-06-07T01:46:54.533Z,12.60
2019-06-07T01:48:58.692Z,12.70
2019-06-07T01:51:02.702Z,12.70
2019-06-07T01:53:06.907Z,12.50
2019-06-07T01:55:11.642Z,12.50
2019-06-07T01:57:30.916Z,12.60
2019-06-07T01:59:21.883Z,12.50
2019-06-07T02:01:34.704Z,12.50
2019-06-07T02:03:33.106Z,12.60
2019-06-07T02:05:37.803Z,12.60
2019-06-07T02:07:41.773Z,12.60
2019-06-07T02:09:45.791Z,12.50
2019-06-07T02:11:50.052Z,12.50
2019-06-07T02:13:54.062Z,12.40
2019-06-07T02:15:58.003Z,12.40
2019-06-07T02:18:01.992Z,12.40
2019-06-07T02:20:07.243Z,12.40
2019-06-07T02:22:11.332Z,12.40
2019-06-07T02:24:15.416Z,12.40
2019-06-07T02:26:20.429Z,12.40
2019-06-07T02:28:38.347Z,12.30
2019-06-07T02:30:47.535Z,12.30
2019-06-07T02:32:37.028Z,12.30
2019-06-07T02:34:41.613Z,12.40
2019-06-07T02:36:46.429Z,12.40
2019-06-07T02:38:50.689Z,12.50
2019-06-07T02:40:55.056Z,12.40
2019-06-07T02:42:59.728Z,12.50
2019-06-07T02:45:04.946Z,12.50
2019-06-07T02:47:09.736Z,12.50
2019-06-07T02:49:14.145Z,12.50
2019-06-07T02:51:19.063Z,12.50
2019-06-07T02:53:25.151Z,12.50
2019-06-07T02:55:34.662Z,12.50
2019-06-07T02:57:36.837Z,12.50
2019-06-07T03:00:05.728Z,12.50
2019-06-07T03:01:47.787Z,12.40
2019-06-07T03:03:52.268Z,12.50
2019-06-07T03:05:57.123Z,12.40
2019-06-07T03:08:01.532Z,12.40
2019-06-07T03:10:09.240Z,12.30
2019-06-07T03:12:15.523Z,12.30
2019-06-07T03:14:22.686Z,12.30
2019-06-07T03:16:28.754Z,12.40
2019-06-07T03:18:36.210Z,12.30
2019-06-07T03:20:41.605Z,12.30
2019-06-07T03:22:45.619Z,12.20
2019-06-07T03:24:51.292Z,12.10
2019-06-07T03:29:02.656Z,12.20
2019-06-07T03:31:06.692Z,12.20
2019-06-07T03:33:10.906Z,12.10
2019-06-07T03:35:14.915Z,12.10
2019-06-07T03:37:18.860Z,12.20
2019-06-07T03:39:23.052Z,12.20
2019-06-07T03:41:29.289Z,12.20
2019-06-07T03:43:37.753Z,12.20
2019-06-07T03:45:41.540Z,12.20
2019-06-07T03:47:44.523Z,12.20
2019-06-07T03:49:48.523Z,12.30
2019-06-07T03:51:52.712Z,12.10
2019-06-07T03:53:56.772Z,12.20
2019-06-07T03:56:00.892Z,12.20
2019-06-07T04:00:11.419Z,12.20
2019-06-07T04:02:15.342Z,12.10
2019-06-07T04:04:19.402Z,12.10
2019-06-07T04:06:23.514Z,12.20
2019-06-07T04:08:28.268Z,12.20
2019-06-07T04:10:48.622Z,12.20
2019-06-07T04:12:40.009Z,12.20
2019-06-07T04:14:43.736Z,12.20
2019-06-07T04:16:47.852Z,12.20
2019-06-07T04:18:51.940Z,12.20
2019-06-07T04:20:56.001Z,12.20
2019-06-07T04:23:00.161Z,12.30
2019-06-07T04:25:07.142Z,12.30
2019-06-07T04:27:11.083Z,12.30
2019-06-07T04:29:35.689Z,12.30
2019-06-07T04:31:20.742Z,12.30
2019-06-07T04:33:24.732Z,12.30
2019-06-07T04:35:31.436Z,12.40
2019-06-07T04:37:39.660Z,12.30
2019-06-07T04:39:45.343Z,12.30
2019-06-07T04:41:52.542Z,12.40
2019-06-07T04:43:59.725Z,12.30
2019-06-07T04:46:04.303Z,12.40
2019-06-07T04:48:08.663Z,12.40
2019-06-07T04:50:12.899Z,12.50
2019-06-07T04:52:16.882Z,12.50
2019-06-07T04:54:21.070Z,12.50
2019-06-07T04:56:25.052Z,12.60
2019-06-07T04:58:30.449Z,12.60
2019-06-07T05:00:56.388Z,12.60
2019-06-07T05:02:43.478Z,12.60
2019-06-07T05:04:47.820Z,12.60
2019-06-07T05:06:51.912Z,12.70
2019-06-07T05:08:55.972Z,12.70
2019-06-07T05:10:59.882Z,12.70
2019-06-07T05:13:04.182Z,12.70
2019-06-07T05:15:08.362Z,12.80
2019-06-07T05:17:13.114Z,12.80
2019-06-07T05:19:17.327Z,12.80
2019-06-07T05:21:21.772Z,12.80
2019-06-07T05:24:03.479Z,12.80
2019-06-07T05:25:33.671Z,13.00
2019-06-07T05:27:41.078Z,13.00
2019-06-07T05:29:45.945Z,13.00
2019-06-07T05:31:49.605Z,13.10
2019-06-07T05:33:53.591Z,13.10
2019-06-07T05:35:57.613Z,13.10
2019-06-07T05:38:01.943Z,13.20
2019-06-07T05:40:07.572Z,13.30
2019-06-07T05:42:11.759Z,13.30
2019-06-07T05:44:15.932Z,13.40
2019-06-07T05:46:20.090Z,13.40
2019-06-07T05:48:24.182Z,13.50
2019-06-07T05:50:43.680Z,13.50
2019-06-07T05:52:36.208Z,13.50
2019-06-07T05:54:40.513Z,13.60
2019-06-07T05:56:45.480Z,13.60
2019-06-07T05:58:49.588Z,13.70
2019-06-07T06:00:53.622Z,13.70
2019-06-07T06:03:05.201Z,13.80
2019-06-07T06:05:03.932Z,13.80
2019-06-07T06:07:07.963Z,13.90
2019-06-07T06:09:14.051Z,13.90
2019-06-07T06:11:17.656Z,14.00
2019-06-07T06:13:21.662Z,14.00
2019-06-07T06:15:41.559Z,14.00
2019-06-07T06:17:31.492Z,14.10
2019-06-07T06:19:36.877Z,14.10
2019-06-07T06:21:44.789Z,14.20
2019-06-07T06:23:50.720Z,14.30
2019-06-07T06:25:56.922Z,14.30
2019-06-07T06:28:09.905Z,14.40
2019-06-07T06:30:04.047Z,14.40
2019-06-07T06:32:41.353Z,14.40
2019-06-07T06:34:13.813Z,14.50
2019-06-07T06:36:18.007Z,14.50
2019-06-07T06:38:22.159Z,14.70
2019-06-07T06:40:26.732Z,14.70
2019-06-07T06:42:30.768Z,14.80
2019-06-07T06:44:34.856Z,14.80
2019-06-07T06:46:46.155Z,14.90
2019-06-07T06:48:48.348Z,14.90
2019-06-07T06:50:52.520Z,14.90
2019-06-07T06:52:56.463Z,14.90
2019-06-07T06:55:01.216Z,15.00
2019-06-07T06:57:18.975Z,15.00
2019-06-07T06:59:37.539Z,15.00
2019-06-07T07:01:16.732Z,15.10
2019-06-07T07:03:57.131Z,15.10
2019-06-07T07:05:26.906Z,15.10
2019-06-07T07:07:31.270Z,15.20
2019-06-07T07:09:36.372Z,15.30
2019-06-07T07:11:58.945Z,15.30
2019-06-07T07:13:49.871Z,15.30
2019-06-07T07:15:57.885Z,15.40
2019-06-07T07:18:07.540Z,15.50
2019-06-07T07:20:03.622Z,15.60
2019-06-07T07:22:07.711Z,15.70
2019-06-07T07:24:21.849Z,15.70
2019-06-07T07:26:17.500Z,15.70
2019-06-07T07:28:21.610Z,15.80
2019-06-07T07:30:52.713Z,15.80
2019-06-07T07:32:59.344Z,15.90
2019-06-07T07:35:00.966Z,16.00
2019-06-07T07:37:06.043Z,16.00
2019-06-07T07:39:10.269Z,16.00
2019-06-07T07:41:15.851Z,16.10
2019-06-07T07:43:20.133Z,16.10
2019-06-07T07:45:24.150Z,16.20
2019-06-07T07:47:28.232Z,16.20
2019-06-07T07:49:32.393Z,16.20
2019-06-07T07:51:36.521Z,16.40
2019-06-07T07:53:52.023Z,16.50
2019-06-07T07:55:50.391Z,16.50
2019-06-07T07:57:56.791Z,16.50
2019-06-07T08:00:13.233Z,16.40
2019-06-07T08:02:03.213Z,16.50
2019-06-07T08:04:07.275Z,16.50
2019-06-07T08:06:11.443Z,16.50
2019-06-07T08:08:15.573Z,16.40
2019-06-07T08:10:19.522Z,16.60
2019-06-07T08:12:23.494Z,16.60
2019-06-07T08:14:27.660Z,16.70
2019-06-07T08:16:31.607Z,16.70
2019-06-07T08:18:35.838Z,16.70
2019-06-07T08:20:40.144Z,16.70
2019-06-07T08:22:44.292Z,16.80
2019-06-07T08:24:50.529Z,16.90
2019-06-07T08:27:17.724Z,16.90
2019-06-07T08:29:02.652Z,17.10
2019-06-07T08:31:07.377Z,17.10
2019-06-07T08:33:25.570Z,17.10
2019-06-07T08:36:02.567Z,17.20
2019-06-07T08:37:22.752Z,17.20
2019-06-07T08:39:26.952Z,17.30
2019-06-07T08:41:31.132Z,17.30
2019-06-07T08:43:35.088Z,17.20
2019-06-07T08:45:39.361Z,17.30
2019-06-07T08:47:43.433Z,17.30
2019-06-07T08:49:47.573Z,17.40
2019-06-07T08:51:56.541Z,17.40
2019-06-07T08:54:15.877Z,17.40
2019-06-07T08:56:09.936Z,17.60
2019-06-07T08:58:09.024Z,17.60
2019-06-07T09:02:23.658Z,17.60
2019-06-07T09:04:25.216Z,17.50
2019-06-07T09:08:34.773Z,17.50
2019-06-07T09:10:38.858Z,17.50
2019-06-07T09:12:42.850Z,17.50
2019-06-07T09:14:59.575Z,17.50
2019-06-07T09:16:55.371Z,17.50
2019-06-07T09:18:59.187Z,17.60
2019-06-07T09:21:07.772Z,17.80
2019-06-07T09:23:16.848Z,17.80
2019-06-07T09:25:21.094Z,17.90
2019-06-07T09:27:22.569Z,17.90
2019-06-07T09:29:26.751Z,17.90
2019-06-07T09:31:51.388Z,17.90
2019-06-07T09:33:36.433Z,17.80
2019-06-07T09:35:40.942Z,17.90
2019-06-07T09:39:50.964Z,18.00
2019-06-07T09:41:56.230Z,18.00
2019-06-07T09:44:10.338Z,18.20
2019-06-07T09:46:12.876Z,18.20
2019-06-07T09:48:15.910Z,18.40
2019-06-07T09:50:17.677Z,18.50
2019-06-07T09:52:21.752Z,18.70
2019-06-07T09:56:31.533Z,18.50
2019-06-07T09:58:53.264Z,18.40
2019-06-07T10:00:42.642Z,18.60
2019-06-07T10:02:46.893Z,18.70
2019-06-07T10:04:50.933Z,18.70
2019-06-07T10:06:55.053Z,18.60
2019-06-07T10:11:05.185Z,18.60
2019-06-07T10:13:10.294Z,18.70
2019-06-07T10:15:14.562Z,18.80
2019-06-07T10:17:18.604Z,18.90
2019-06-07T10:19:22.585Z,18.90
2019-06-07T10:21:26.582Z,18.80
2019-06-07T10:23:30.740Z,18.80
2019-06-07T10:25:34.912Z,18.80
2019-06-07T10:27:38.968Z,18.80
2019-06-07T10:29:43.006Z,18.70
2019-06-07T10:31:47.219Z,18.70
2019-06-07T10:33:51.342Z,18.70
2019-06-07T10:35:55.166Z,18.90
2019-06-07T10:38:00.323Z,18.80
2019-06-07T10:40:07.032Z,18.70
2019-06-07T10:42:11.573Z,18.80
2019-06-07T10:44:15.922Z,18.80
2019-06-07T10:46:19.943Z,18.80
2019-06-07T10:48:25.124Z,18.90
2019-06-07T10:50:29.362Z,19.10
2019-06-07T10:52:33.337Z,19.20
2019-06-07T10:54:37.372Z,19.40
2019-06-07T10:56:41.565Z,19.40
2019-06-07T10:58:45.672Z,19.30
2019-06-07T11:00:49.712Z,19.40
2019-06-07T11:02:55.299Z,19.50
2019-06-07T11:04:59.523Z,19.60
2019-06-07T11:07:04.557Z,19.70
2019-06-07T11:09:09.980Z,19.60
2019-06-07T11:11:14.392Z,19.60
2019-06-07T11:13:18.801Z,19.60
2019-06-07T11:15:22.902Z,19.70
2019-06-07T11:17:27.252Z,19.80
2019-06-07T11:19:31.403Z,19.80
2019-06-07T11:21:35.724Z,20.10
2019-06-07T11:23:39.773Z,19.90
2019-06-07T11:25:43.823Z,19.80
2019-06-07T11:27:48.043Z,19.80
2019-06-07T11:29:52.272Z,20.00
2019-06-07T11:31:56.253Z,20.10
2019-06-07T11:34:00.404Z,20.20
2019-06-07T11:36:04.403Z,20.40
2019-06-07T11:38:08.532Z,20.40
2019-06-07T11:40:35.623Z,20.30
2019-06-07T11:42:20.072Z,20.30
2019-06-07T11:44:24.172Z,20.40
2019-06-07T11:46:28.319Z,20.50
2019-06-07T11:48:32.384Z,20.40
2019-06-07T11:50:36.359Z,20.50
2019-06-07T11:52:40.646Z,20.60
2019-06-07T11:54:47.909Z,20.80
2019-06-07T11:56:50.380Z,20.90
2019-06-07T11:58:54.454Z,21.10
2019-06-07T12:00:58.469Z,21.00
2019-06-07T12:03:02.481Z,21.30
2019-06-07T12:05:07.758Z,21.40
2019-06-07T12:07:13.597Z,21.40
2019-06-07T12:09:18.764Z,21.20
2019-06-07T12:11:23.091Z,21.40
2019-06-07T12:13:27.204Z,21.40
2019-06-07T12:15:31.313Z,21.50
2019-06-07T12:17:35.583Z,21.60
2019-06-07T12:19:39.780Z,21.50
2019-06-07T12:21:43.813Z,21.40
2019-06-07T12:23:48.049Z,21.30
2019-06-07T12:25:52.002Z,21.00
2019-06-07T12:27:56.193Z,20.90
2019-06-07T12:30:00.376Z,20.90
2019-06-07T12:32:04.413Z,21.00
2019-06-07T12:34:08.363Z,21.30
2019-06-07T12:36:13.546Z,21.30
2019-06-07T12:38:19.386Z,21.30
2019-06-07T12:40:30.189Z,21.50
2019-06-07T12:42:29.122Z,21.60
2019-06-07T12:44:33.092Z,21.50
2019-06-07T12:46:37.380Z,21.70
2019-06-07T12:48:41.573Z,22.00
2019-06-07T12:50:45.600Z,22.30
2019-06-07T12:52:49.663Z,22.60
2019-06-07T12:54:53.730Z,22.70
2019-06-07T12:56:57.843Z,22.80
2019-06-07T12:59:01.860Z,22.80
2019-06-07T13:01:06.382Z,22.80
2019-06-07T13:03:10.512Z,23.00
2019-06-07T13:05:15.358Z,23.20
2019-06-07T13:07:20.077Z,23.20
2019-06-07T13:09:24.281Z,23.40
2019-06-07T13:11:31.556Z,23.60
2019-06-07T13:13:34.082Z,23.70
2019-06-07T13:15:38.202Z,23.70
2019-06-07T13:17:42.277Z,23.60
2019-06-07T13:19:46.664Z,23.70
2019-06-07T13:21:50.624Z,24.10
2019-06-07T13:23:54.668Z,24.10
2019-06-07T13:25:58.901Z,24.30
2019-06-07T13:28:02.983Z,24.50
2019-06-07T13:30:10.711Z,24.50
2019-06-07T13:32:15.646Z,24.60
2019-06-07T13:34:20.517Z,24.40
2019-06-07T13:36:24.738Z,24.50
2019-06-07T13:38:29.237Z,24.80
2019-06-07T13:40:33.291Z,24.90
2019-06-07T13:42:37.356Z,24.90
2019-06-07T13:44:41.564Z,24.90
2019-06-07T13:46:45.633Z,24.80
2019-06-07T13:48:49.743Z,24.50
2019-06-07T13:50:53.933Z,24.40
2019-06-07T13:52:57.972Z,24.60
2019-06-07T13:55:02.660Z,24.90
2019-06-07T13:57:07.094Z,24.90
2019-06-07T13:59:11.162Z,25.20
2019-06-07T14:01:15.483Z,25.00
2019-06-07T14:03:23.504Z,25.50
2019-06-07T14:05:25.162Z,25.50
2019-06-07T14:07:30.068Z,25.50
2019-06-07T14:09:34.455Z,24.70
2019-06-07T14:11:49.820Z,24.70
2019-06-07T14:13:44.260Z,24.90
2019-06-07T14:15:48.413Z,25.20
2019-06-07T14:17:52.456Z,25.20
2019-06-07T14:19:56.522Z,25.10
2019-06-07T14:22:00.834Z,24.90
2019-06-07T14:24:05.263Z,25.00
2019-06-07T14:26:09.254Z,25.20
2019-06-07T14:28:13.452Z,25.60
2019-06-07T14:30:17.865Z,26.20
2019-06-07T14:32:22.640Z,26.30
2019-06-07T14:34:26.932Z,26.20
2019-06-07T14:36:31.145Z,26.60
2019-06-07T14:38:37.516Z,26.30
2019-06-07T14:40:41.182Z,26.40
2019-06-07T14:42:45.271Z,26.10
2019-06-07T14:44:49.275Z,25.80
2019-06-07T14:46:53.452Z,26.30
2019-06-07T14:48:57.549Z,26.50
2019-06-07T14:51:01.605Z,26.30
2019-06-07T14:53:06.033Z,26.40
2019-06-07T14:55:10.200Z,26.40
2019-06-07T14:57:14.354Z,26.40
2019-06-07T14:59:18.541Z,26.20
2019-06-07T15:01:22.572Z,26.10
2019-06-07T15:03:26.673Z,26.00
2019-06-07T15:05:31.343Z,26.30
2019-06-07T15:07:36.826Z,26.00
2019-06-07T15:09:40.982Z,26.00
2019-06-07T15:11:45.191Z,25.70
2019-06-07T15:13:49.393Z,25.50
2019-06-07T15:15:53.392Z,25.30
2019-06-07T15:17:57.653Z,25.20
2019-06-07T15:20:01.726Z,25.30
2019-06-07T15:22:05.932Z,25.40
2019-06-07T15:24:10.163Z,26.00
2019-06-07T15:26:14.253Z,25.80
2019-06-07T15:28:18.277Z,26.30
2019-06-07T15:30:22.433Z,26.70
2019-06-07T15:40:47.452Z,26.30
2019-06-07T15:42:53.064Z,26.70
2019-06-07T15:44:56.941Z,26.70
2019-06-07T15:47:01.080Z,26.90
2019-06-07T15:49:05.212Z,26.90
2019-06-07T15:51:09.202Z,27.10
2019-06-07T15:53:13.332Z,27.00
2019-06-07T15:55:19.270Z,27.00
2019-06-07T15:57:23.302Z,27.10
2019-06-07T15:59:27.413Z,27.60
2019-06-07T16:01:33.476Z,27.50
2019-06-07T16:03:38.067Z,27.60
2019-06-07T16:05:43.211Z,27.70
2019-06-07T16:07:47.341Z,27.70
2019-06-07T16:09:51.283Z,27.80
2019-06-07T16:11:55.515Z,27.90
2019-06-07T16:13:59.472Z,27.50
2019-06-07T16:16:03.586Z,27.40
2019-06-07T16:18:07.758Z,27.50
2019-06-07T16:20:13.376Z,27.60
2019-06-07T16:22:17.272Z,27.50
2019-06-07T16:24:21.363Z,27.50
2019-06-07T16:26:25.313Z,27.60
2019-06-07T16:28:29.253Z,27.50
2019-06-07T16:30:34.283Z,27.20
2019-06-07T16:32:39.327Z,26.90
2019-06-07T16:34:43.847Z,26.60
2019-06-07T16:36:48.866Z,26.60
2019-06-07T16:38:52.973Z,26.90
2019-06-07T16:40:56.912Z,26.70
2019-06-07T16:43:16.130Z,26.60
2019-06-07T16:45:10.644Z,26.60
2019-06-07T16:47:14.722Z,26.60
2019-06-07T16:49:18.723Z,26.50
2019-06-07T16:51:22.830Z,26.50
2019-06-07T16:53:26.743Z,26.50
2019-06-07T16:55:30.805Z,26.20
2019-06-07T16:57:34.903Z,26.10
2019-06-07T16:59:38.842Z,26.20
2019-06-07T17:01:43.162Z,26.30
2019-06-07T17:03:47.644Z,26.50
2019-06-07T17:05:51.640Z,26.40
2019-06-07T17:07:55.672Z,26.40
2019-06-07T17:09:59.659Z,26.40
2019-06-07T17:12:03.597Z,26.20
2019-06-07T17:14:07.713Z,26.00
2019-06-07T17:16:11.650Z,25.90
2019-06-07T17:18:15.652Z,25.50
2019-06-07T17:20:19.700Z,25.30
2019-06-07T17:22:23.722Z,24.90
2019-06-07T17:24:27.709Z,24.80
2019-06-07T17:26:31.864Z,24.60
2019-06-07T17:28:35.853Z,24.40
2019-06-07T17:30:39.904Z,24.30
2019-06-07T17:32:55.069Z,24.00
2019-06-07T17:34:50.328Z,24.00
2019-06-07T17:36:54.453Z,23.90
2019-06-07T17:38:58.701Z,23.80
2019-06-07T17:41:02.619Z,23.70
2019-06-07T17:43:06.583Z,23.60
2019-06-07T17:45:12.190Z,23.60
2019-06-07T17:47:16.163Z,23.60
2019-06-07T17:49:20.228Z,23.60
2019-06-07T17:51:24.454Z,23.50
2019-06-07T17:53:30.508Z,23.50
2019-06-07T17:55:33.982Z,23.40
2019-06-07T17:57:38.170Z,23.40
2019-06-07T17:59:42.458Z,23.40
2019-06-07T18:02:07.113Z,23.40
2019-06-07T18:03:53.238Z,23.40
2019-06-07T18:05:58.340Z,23.40
2019-06-07T18:08:02.689Z,23.40
2019-06-07T18:10:11.172Z,23.20
2019-06-07T18:12:15.287Z,23.30
2019-06-07T18:14:19.220Z,23.20
2019-06-07T18:16:23.302Z,23.20
2019-06-07T18:18:27.212Z,23.10
2019-06-07T18:20:31.204Z,22.90
2019-06-07T18:22:35.315Z,22.90
2019-06-07T18:24:39.182Z,23.00
2019-06-07T18:26:43.160Z,23.00
2019-06-07T18:28:48.394Z,23.00
2019-06-07T18:30:52.832Z,22.80
2019-06-07T18:32:56.943Z,22.80
2019-06-07T18:35:01.044Z,22.80
2019-06-07T18:37:05.003Z,22.70
2019-06-07T18:39:09.238Z,22.60
2019-06-07T18:41:13.211Z,22.60
2019-06-07T18:43:17.194Z,22.30
2019-06-07T18:45:21.244Z,22.30
2019-06-07T18:47:25.394Z,22.30
2019-06-07T18:49:29.342Z,22.30
2019-06-07T18:51:33.233Z,22.20
2019-06-07T18:53:37.213Z,22.20
2019-06-07T18:55:41.192Z,22.20
2019-06-07T18:57:45.762Z,22.10
2019-06-07T18:59:54.692Z,21.90
2019-06-07T19:01:58.632Z,21.90
2019-06-07T19:04:02.592Z,21.90
2019-06-07T19:06:06.879Z,21.90
2019-06-07T19:08:10.812Z,21.90
2019-06-07T19:10:16.532Z,21.90
2019-06-07T19:12:20.614Z,21.70
2019-06-07T19:14:36.690Z,21.70
2019-06-07T19:16:30.240Z,21.80
2019-06-07T19:18:34.251Z,21.80
2019-06-07T19:20:38.234Z,21.60
2019-06-07T19:22:42.252Z,21.60
2019-06-07T19:24:46.413Z,21.40
2019-06-07T19:26:50.577Z,21.30
2019-06-07T19:28:54.590Z,21.20
2019-06-07T19:30:59.189Z,21.30
2019-06-07T19:33:03.322Z,21.30
2019-06-07T19:35:08.345Z,21.20
2019-06-07T19:37:12.532Z,21.00
2019-06-07T19:39:16.500Z,21.10
2019-06-07T19:41:20.492Z,21.20
2019-06-07T19:43:24.812Z,21.20
2019-06-07T19:45:31.412Z,21.10
2019-06-07T19:47:34.240Z,21.20
2019-06-07T19:49:38.202Z,21.10
2019-06-07T19:51:42.130Z,21.00
2019-06-07T19:53:46.142Z,21.00
2019-06-07T19:55:50.130Z,20.80
2019-06-07T19:57:55.411Z,21.00
2019-06-07T19:59:59.635Z,20.90
2019-06-07T20:02:04.169Z,20.90
2019-06-07T20:04:08.214Z,21.00
2019-06-07T20:06:12.247Z,20.80
2019-06-07T20:08:16.253Z,20.70
2019-06-07T20:10:20.277Z,20.70
2019-06-07T20:12:24.225Z,20.20
2019-06-07T20:14:28.331Z,20.40
2019-06-07T20:16:32.240Z,20.20
2019-06-07T20:18:36.264Z,19.90
2019-06-07T20:20:40.402Z,19.80
2019-06-07T20:22:44.462Z,19.80
2019-06-07T20:24:48.592Z,19.70
2019-06-07T20:26:52.700Z,19.60
2019-06-07T20:28:57.143Z,19.50
2019-06-07T20:31:01.975Z,19.40
2019-06-07T20:33:06.286Z,19.50
2019-06-07T20:35:10.697Z,19.40
2019-06-07T20:37:14.662Z,19.30
2019-06-07T20:39:18.732Z,19.40
2019-06-07T20:41:22.710Z,19.40
2019-06-07T20:43:26.730Z,19.40
2019-06-07T20:45:33.985Z,19.20
2019-06-07T20:47:36.292Z,19.20
2019-06-07T20:49:40.250Z,19.40
2019-06-07T20:51:44.451Z,19.40
2019-06-07T20:53:48.683Z,19.40
2019-06-07T20:55:52.503Z,19.20
2019-06-07T20:57:56.543Z,19.20
2019-06-07T21:00:02.423Z,19.10
2019-06-07T21:02:07.196Z,19.00
2019-06-07T21:04:11.482Z,19.10
2019-06-07T21:06:15.621Z,19.00
2019-06-07T21:08:19.602Z,18.90
2019-06-07T21:10:23.842Z,18.90
2019-06-07T21:12:27.832Z,18.80
2019-06-07T21:14:31.822Z,18.90
2019-06-07T21:16:35.912Z,19.00
2019-06-07T21:18:39.840Z,19.00
2019-06-07T21:20:43.715Z,18.90
2019-06-07T21:22:47.714Z,18.80
2019-06-07T21:24:51.760Z,18.80
2019-06-07T21:26:55.802Z,18.90
2019-06-07T21:29:01.118Z,18.80
2019-06-07T21:31:06.574Z,18.80
2019-06-07T21:33:11.912Z,18.70
2019-06-07T21:35:16.132Z,18.80
2019-06-07T21:37:20.162Z,18.70
2019-06-07T21:39:24.106Z,18.70
2019-06-07T21:41:28.102Z,18.60
2019-06-07T21:43:32.102Z,18.80
2019-06-07T21:45:35.936Z,18.80
2019-06-07T21:47:39.972Z,18.80
2019-06-07T21:49:44.102Z,18.70
2019-06-07T21:51:48.090Z,18.40
2019-06-07T21:53:52.042Z,18.60
2019-06-07T21:55:56.053Z,18.60
2019-06-07T21:58:00.153Z,18.60
2019-06-07T22:00:29.222Z,18.50
2019-06-07T22:02:33.428Z,18.40
2019-06-07T22:04:37.432Z,18.40
2019-06-07T22:06:41.462Z,18.20
2019-06-07T22:08:45.542Z,18.30
2019-06-07T22:10:49.592Z,18.20
2019-06-07T22:12:53.773Z,18.20
2019-06-07T22:14:57.790Z,18.20
2019-06-07T22:17:01.611Z,18.10
2019-06-07T22:19:06.516Z,18.10
2019-06-07T22:21:10.743Z,18.10
2019-06-07T22:23:14.921Z,18.20
2019-06-07T22:25:19.062Z,18.20
2019-06-07T22:27:23.097Z,18.20
2019-06-07T22:29:27.143Z,18.10
2019-06-07T22:31:31.313Z,18.10
2019-06-07T22:33:35.350Z,17.90
2019-06-07T22:35:39.552Z,18.00
2019-06-07T22:37:43.733Z,17.90
2019-06-07T22:39:47.732Z,18.00
2019-06-07T22:41:51.703Z,18.00
2019-06-07T22:43:55.842Z,17.90
2019-06-07T22:45:59.834Z,18.00
2019-06-07T22:48:03.780Z,17.90
2019-06-07T22:50:10.701Z,18.00
2019-06-07T22:52:15.748Z,17.90
2019-06-07T22:54:20.650Z,17.90
2019-06-07T22:56:32.168Z,17.90
2019-06-07T22:58:36.138Z,17.70
2019-06-07T23:00:40.112Z,17.70
2019-06-07T23:02:44.260Z,17.70
2019-06-07T23:04:48.290Z,17.70
2019-06-07T23:06:52.336Z,17.50
2019-06-07T23:08:56.455Z,17.70
2019-06-07T23:11:00.472Z,17.50
2019-06-07T23:13:04.451Z,17.50
2019-06-07T23:15:11.407Z,17.50
2019-06-07T23:17:15.810Z,17.50
2019-06-07T23:19:20.449Z,17.70
2019-06-07T23:21:24.602Z,17.50
2019-06-07T23:23:28.592Z,17.60
2019-06-07T23:25:32.592Z,17.60
2019-06-07T23:27:36.610Z,17.50
2019-06-07T23:29:40.520Z,17.40
2019-06-07T23:31:44.622Z,17.50
2019-06-07T23:33:48.622Z,17.50
2019-06-07T23:35:52.583Z,17.50
2019-06-07T23:37:56.504Z,17.30
2019-06-07T23:40:00.513Z,17.20
2019-06-07T23:42:04.548Z,17.20
2019-06-07T23:44:08.482Z,17.30
2019-06-07T23:46:13.437Z,17.30
2019-06-07T23:48:17.559Z,17.40
2019-06-07T23:50:21.918Z,17.30
2019-06-07T23:52:26.082Z,17.30
2019-06-07T23:54:29.983Z,17.10
2019-06-07T23:56:33.947Z,17.30
2019-06-07T23:58:38.053Z,17.20
